Time;durP1;ratioP1;P1;durP2;ratioP2;P2;SDS_P1;SDS_P2;PMS_P1;PMS_P2;Temp;Humidity;BMP_temperature;BMP_pressure;BME280_temperature;BME280_humidity;BME280_pressure;Samples;Min_cycle;Max_cycle;Signal;HPM_P1;HPM_P2
2022/09/01 00:02:27;0.00;0.00;0.62;0.00;0.00;0.62;2.60;1.37;;;26.20;26.30;;;;;;2246195;61;20358;-62
2022/09/01 00:05:13;0.00;0.00;0.62;0.00;0.00;0.62;1.50;0.90;;;26.20;26.30;;;;;;2245972;61;20419;-63
2022/09/01 00:07:58;0.00;0.00;0.62;0.00;0.00;0.62;1.97;0.90;;;26.20;26.40;;;;;;2245957;61;20365;-64
2022/09/01 00:10:43;0.00;0.00;0.62;0.00;0.00;0.62;1.80;0.90;;;26.10;26.30;;;;;;2246085;61;20761;-64
2022/09/01 00:13:32;0.00;0.00;0.62;0.00;0.00;0.62;1.40;0.90;;;26.10;26.40;;;;;;2245920;61;20793;-63
2022/09/01 00:16:18;0.00;0.00;0.62;0.00;0.00;0.62;2.20;1.07;;;26.10;26.40;;;;;;2246004;61;20506;-61
2022/09/01 00:19:04;0.00;0.00;0.62;0.00;0.00;0.62;1.50;0.97;;;26.10;26.50;;;;;;2246005;61;20697;-61
2022/09/01 00:21:50;0.00;0.00;0.62;0.00;0.00;0.62;1.40;1.00;;;26.10;27.00;;;;;;2245840;61;20721;-62
2022/09/01 00:24:36;0.00;0.00;0.62;0.00;0.00;0.62;1.50;0.90;;;26.10;26.50;;;;;;2246241;61;20381;-61
2022/09/01 00:27:21;0.00;0.00;0.62;0.00;0.00;0.62;2.30;1.20;;;26.10;26.50;;;;;;2245883;61;20378;-64
2022/09/01 00:30:08;0.00;0.00;0.62;0.00;0.00;0.62;2.07;1.20;;;26.10;26.60;;;;;;2245879;61;20618;-64
2022/09/01 00:32:53;0.00;0.00;0.62;0.00;0.00;0.62;2.30;0.90;;;26.00;26.50;;;;;;2245728;61;20769;-64
2022/09/01 00:35:37;0.00;0.00;0.62;0.00;0.00;0.62;1.63;0.83;;;26.10;26.60;;;;;;2245295;61;20377;-61
2022/09/01 00:38:23;0.00;0.00;0.62;0.00;0.00;0.62;1.60;0.93;;;26.10;26.60;;;;;;2245927;61;20794;-61
2022/09/01 00:41:08;0.00;0.00;0.62;0.00;0.00;0.62;2.50;0.83;;;26.10;26.60;;;;;;2245506;61;20365;-61
2022/09/01 00:43:56;0.00;0.00;0.62;0.00;0.00;0.62;1.60;0.93;;;26.00;26.60;;;;;;2245632;61;20441;-62
2022/09/01 00:46:45;0.00;0.00;0.62;0.00;0.00;0.62;10.90;1.80;;;26.10;26.60;;;;;;2245804;61;20358;-61
2022/09/01 00:49:34;0.00;0.00;0.62;0.00;0.00;0.62;1.63;1.00;;;26.10;26.60;;;;;;2245536;61;20365;-62
2022/09/01 00:52:27;0.00;0.00;0.62;0.00;0.00;0.62;3.20;0.90;;;26.10;27.20;;;;;;2245501;61;20421;-63
2022/09/01 00:55:22;0.00;0.00;0.62;0.00;0.00;0.62;2.50;0.90;;;26.10;26.70;;;;;;2245803;61;20424;-62
2022/09/01 00:58:07;0.00;0.00;0.62;0.00;0.00;0.62;2.00;1.00;;;26.10;26.70;;;;;;2245440;61;20407;-62
2022/09/01 01:00:53;0.00;0.00;0.62;0.00;0.00;0.62;1.30;0.80;;;26.10;26.70;;;;;;2245403;61;20721;-62
2022/09/01 01:03:44;0.00;0.00;0.62;0.00;0.00;0.62;1.40;0.80;;;26.10;26.70;;;;;;2245378;61;20643;-61
2022/09/01 01:06:30;0.00;0.00;0.62;0.00;0.00;0.62;1.83;1.10;;;26.10;26.70;;;;;;2245480;61;20389;-63
2022/09/01 01:09:17;0.00;0.00;0.62;0.00;0.00;0.62;2.50;1.07;;;26.10;27.20;;;;;;2245824;61;20741;-61
2022/09/01 01:12:05;0.00;0.00;0.62;0.00;0.00;0.62;3.53;1.00;;;26.10;26.70;;;;;;2245262;61;20409;-62
2022/09/01 01:14:50;0.00;0.00;0.62;0.00;0.00;0.62;2.10;0.90;;;26.10;26.70;;;;;;2245344;61;20393;-63
2022/09/01 01:17:36;0.00;0.00;0.62;0.00;0.00;0.62;1.50;0.90;;;26.10;26.70;;;;;;2245397;61;20669;-62
2022/09/01 01:23:39;0.00;0.00;0.62;0.00;0.00;0.62;2.33;1.03;;;26.20;26.80;;;;;;2245512;61;20434;-61
2022/09/01 01:26:26;0.00;0.00;0.62;0.00;0.00;0.62;1.60;0.90;;;26.20;26.80;;;;;;2245359;61;20366;-62
2022/09/01 01:29:11;0.00;0.00;0.62;0.00;0.00;0.62;1.77;0.90;;;26.10;26.80;;;;;;2245273;61;20372;-59
2022/09/01 01:31:56;0.00;0.00;0.62;0.00;0.00;0.62;1.97;1.10;;;26.10;26.80;;;;;;2245197;61;20401;-62
2022/09/01 01:34:44;0.00;0.00;0.62;0.00;0.00;0.62;1.30;0.80;;;26.20;26.80;;;;;;2245202;61;20397;-61
2022/09/01 01:37:29;0.00;0.00;0.62;0.00;0.00;0.62;1.30;0.83;;;26.20;26.80;;;;;;2245303;61;20765;-62
2022/09/01 01:40:17;0.00;0.00;0.62;0.00;0.00;0.62;1.60;0.90;;;26.20;26.80;;;;;;2245265;61;20366;-63
2022/09/01 01:43:04;0.00;0.00;0.62;0.00;0.00;0.62;3.83;0.80;;;26.20;26.80;;;;;;2245737;61;20360;-61
2022/09/01 01:45:52;0.00;0.00;0.62;0.00;0.00;0.62;1.70;1.07;;;26.20;26.80;;;;;;2245790;61;20466;-62
2022/09/01 01:48:41;0.00;0.00;0.62;0.00;0.00;0.62;1.73;1.07;;;26.20;26.80;;;;;;2245274;61;20484;-62
2022/09/01 01:51:27;0.00;0.00;0.62;0.00;0.00;0.62;1.90;1.07;;;26.20;26.80;;;;;;2245211;61;20357;-62
2022/09/01 01:54:12;0.00;0.00;0.62;0.00;0.00;0.62;1.80;1.07;;;26.20;26.80;;;;;;2245137;61;20647;-62
2022/09/01 01:56:57;0.00;0.00;0.62;0.00;0.00;0.62;1.40;0.70;;;26.20;26.80;;;;;;2245607;61;20361;-62
2022/09/01 01:59:44;0.00;0.00;0.62;0.00;0.00;0.62;1.40;0.90;;;26.20;26.80;;;;;;2245262;61;20596;-61
2022/09/01 02:02:30;0.00;0.00;0.62;0.00;0.00;0.62;1.60;0.87;;;26.20;26.80;;;;;;2245564;61;20361;-63
2022/09/01 02:05:21;0.00;0.00;0.62;0.00;0.00;0.62;1.70;1.03;;;26.30;26.80;;;;;;2245108;61;20789;-63
2022/09/01 02:08:09;0.00;0.00;0.62;0.00;0.00;0.62;1.37;0.80;;;26.20;26.80;;;;;;2245594;61;20382;-63
2022/09/01 02:10:56;0.00;0.00;0.62;0.00;0.00;0.62;1.50;1.00;;;26.20;26.80;;;;;;2245647;61;20425;-62
2022/09/01 02:13:41;0.00;0.00;0.62;0.00;0.00;0.62;1.50;0.80;;;26.20;26.80;;;;;;2245002;61;20430;-62
2022/09/01 02:16:31;0.00;0.00;0.62;0.00;0.00;0.62;1.40;0.90;;;26.30;26.80;;;;;;2245598;61;20478;-64
2022/09/01 02:19:19;0.00;0.00;0.62;0.00;0.00;0.62;2.43;1.00;;;26.20;26.80;;;;;;2245258;61;20588;-64
2022/09/01 02:22:04;0.00;0.00;0.62;0.00;0.00;0.62;1.50;0.90;;;26.20;26.80;;;;;;2245089;61;20362;-62
2022/09/01 02:24:52;0.00;0.00;0.62;0.00;0.00;0.62;1.43;1.00;;;26.20;26.70;;;;;;2245195;61;20458;-62
2022/09/01 02:27:38;0.00;0.00;0.62;0.00;0.00;0.62;1.60;1.00;;;26.20;26.80;;;;;;2245555;61;20420;-61
2022/09/01 02:30:26;0.00;0.00;0.62;0.00;0.00;0.62;2.73;0.93;;;26.20;26.70;;;;;;2245462;61;20369;-61
2022/09/01 02:33:18;0.00;0.00;0.62;0.00;0.00;0.62;1.30;0.90;;;26.30;26.80;;;;;;2244951;61;20362;-63
2022/09/01 02:36:13;0.00;0.00;0.62;0.00;0.00;0.62;2.17;1.03;;;26.20;26.80;;;;;;2244983;61;20361;-62
2022/09/01 02:38:57;0.00;0.00;0.62;0.00;0.00;0.62;1.70;0.90;;;26.20;26.80;;;;;;2245168;61;20725;-62
2022/09/01 02:41:43;0.00;0.00;0.62;0.00;0.00;0.62;1.77;0.90;;;26.20;26.80;;;;;;2245283;61;20782;-61
2022/09/01 02:44:30;0.00;0.00;0.62;0.00;0.00;0.62;2.30;1.20;;;26.20;26.80;;;;;;2245018;61;20765;-63
2022/09/01 02:47:16;0.00;0.00;0.62;0.00;0.00;0.62;1.60;0.93;;;26.20;26.80;;;;;;2242040;61;20357;-61
2022/09/01 02:50:03;0.00;0.00;0.62;0.00;0.00;0.62;1.50;0.90;;;26.20;26.80;;;;;;2245076;61;20485;-63
2022/09/01 02:52:49;0.00;0.00;0.62;0.00;0.00;0.62;1.67;1.10;;;26.20;26.80;;;;;;2244962;61;20370;-64
2022/09/01 02:55:35;0.00;0.00;0.62;0.00;0.00;0.62;2.13;1.20;;;26.20;26.80;;;;;;2245045;61;20386;-64
2022/09/01 02:58:20;0.00;0.00;0.62;0.00;0.00;0.62;1.63;0.87;;;26.20;26.80;;;;;;2244935;61;20402;-62
2022/09/01 03:01:10;0.00;0.00;0.62;0.00;0.00;0.62;1.40;0.93;;;26.20;26.80;;;;;;2245439;61;20365;-61
2022/09/01 03:03:59;0.00;0.00;0.62;0.00;0.00;0.62;1.57;1.00;;;26.20;26.80;;;;;;2245484;61;20431;-62
2022/09/01 03:06:46;0.00;0.00;0.62;0.00;0.00;0.62;1.60;0.90;;;26.20;26.80;;;;;;2245445;61;20397;-64
2022/09/01 03:09:34;0.00;0.00;0.62;0.00;0.00;0.62;1.83;1.00;;;26.20;26.80;;;;;;2244841;61;20401;-61
2022/09/01 03:12:19;0.00;0.00;0.62;0.00;0.00;0.62;1.47;0.80;;;26.20;26.90;;;;;;2244844;61;20378;-62
2022/09/01 03:15:06;0.00;0.00;0.62;0.00;0.00;0.62;1.80;1.10;;;26.20;26.90;;;;;;2245368;61;20421;-62
2022/09/01 03:17:51;0.00;0.00;0.62;0.00;0.00;0.62;1.40;1.00;;;26.20;26.90;;;;;;2245248;61;20598;-61
2022/09/01 03:20:41;0.00;0.00;0.62;0.00;0.00;0.62;1.40;0.90;;;26.20;26.90;;;;;;2245371;61;20578;-63
2022/09/01 03:23:30;0.00;0.00;0.62;0.00;0.00;0.62;1.60;1.10;;;26.10;26.90;;;;;;2244845;61;20378;-62
2022/09/01 03:26:18;0.00;0.00;0.62;0.00;0.00;0.62;2.17;1.20;;;26.10;26.90;;;;;;2245063;61;20373;-64
2022/09/01 03:29:03;0.00;0.00;0.62;0.00;0.00;0.62;2.20;0.90;;;26.20;27.00;;;;;;2245689;61;20439;-64
2022/09/01 03:31:48;0.00;0.00;0.62;0.00;0.00;0.62;2.10;1.17;;;26.20;27.00;;;;;;2245259;61;20361;-64
2022/09/01 03:34:35;0.00;0.00;0.62;0.00;0.00;0.62;1.83;1.00;;;26.10;26.90;;;;;;2244717;61;20429;-63
2022/09/01 03:37:22;0.00;0.00;0.62;0.00;0.00;0.62;3.10;1.20;;;26.10;26.90;;;;;;2244901;61;20769;-62
2022/09/01 03:40:12;0.00;0.00;0.62;0.00;0.00;0.62;1.63;0.83;;;26.10;26.90;;;;;;2245029;61;20412;-61
2022/09/01 03:42:57;0.00;0.00;0.62;0.00;0.00;0.62;1.50;0.90;;;26.10;27.00;;;;;;2244786;61;20502;-65
2022/09/01 03:45:44;0.00;0.00;0.62;0.00;0.00;0.62;1.60;1.00;;;26.10;26.90;;;;;;2244945;61;20434;-61
2022/09/01 03:48:31;0.00;0.00;0.62;0.00;0.00;0.62;1.83;1.20;;;26.10;27.00;;;;;;2244995;61;20757;-64
2022/09/01 03:51:17;0.00;0.00;0.62;0.00;0.00;0.62;2.13;1.10;;;26.10;27.00;;;;;;2245079;61;20417;-62
2022/09/01 03:54:03;0.00;0.00;0.62;0.00;0.00;0.62;1.40;0.87;;;26.10;27.00;;;;;;2244510;61;20397;-64
2022/09/01 03:56:49;0.00;0.00;0.62;0.00;0.00;0.62;1.40;0.80;;;26.10;27.00;;;;;;2244746;61;20761;-60
2022/09/01 03:59:42;0.00;0.00;0.62;0.00;0.00;0.62;1.63;1.03;;;26.10;27.00;;;;;;2245033;61;20634;-63
2022/09/01 04:02:28;0.00;0.00;0.62;0.00;0.00;0.62;1.40;0.90;;;26.00;26.90;;;;;;2245278;61;20369;-61
2022/09/01 04:05:13;0.00;0.00;0.62;0.00;0.00;0.62;2.03;1.10;;;26.00;27.00;;;;;;2244707;61;20381;-64
2022/09/01 04:08:02;0.00;0.00;0.62;0.00;0.00;0.62;1.80;0.90;;;26.00;27.00;;;;;;2244964;61;20402;-61
2022/09/01 04:10:51;0.00;0.00;0.62;0.00;0.00;0.62;2.00;1.13;;;26.00;27.00;;;;;;2244811;61;20434;-61
2022/09/01 04:13:40;0.00;0.00;0.62;0.00;0.00;0.62;1.40;1.00;;;26.00;27.00;;;;;;2245085;61;20433;-63
2022/09/01 04:19:36;0.00;0.00;0.62;0.00;0.00;0.62;1.70;1.00;;;26.00;27.00;;;;;;2245346;61;20381;-63
2022/09/01 04:22:28;0.00;0.00;0.62;0.00;0.00;0.62;1.77;1.10;;;26.00;27.00;;;;;;2245132;61;20362;-62
2022/09/01 04:25:15;0.00;0.00;0.62;0.00;0.00;0.62;2.43;1.13;;;26.00;27.10;;;;;;2244733;61;20385;-63
2022/09/01 04:28:11;0.00;0.00;0.62;0.00;0.00;0.62;1.77;1.10;;;26.00;27.10;;;;;;2244866;61;20401;-63
2022/09/01 04:30:58;0.00;0.00;0.62;0.00;0.00;0.62;1.73;1.10;;;26.00;27.10;;;;;;2244467;61;20394;-62
2022/09/01 04:33:46;0.00;0.00;0.62;0.00;0.00;0.62;1.70;1.10;;;25.90;27.10;;;;;;2244621;61;20660;-62
2022/09/01 04:36:32;0.00;0.00;0.62;0.00;0.00;0.62;1.73;0.97;;;26.00;27.20;;;;;;2244839;61;20413;-62
2022/09/01 04:39:17;0.00;0.00;0.62;0.00;0.00;0.62;2.07;1.10;;;26.00;27.20;;;;;;2244664;61;20370;-61
2022/09/01 04:42:07;0.00;0.00;0.62;0.00;0.00;0.62;1.80;1.10;;;25.90;27.10;;;;;;2245245;61;20369;-64
2022/09/01 04:44:56;0.00;0.00;0.62;0.00;0.00;0.62;1.97;1.20;;;26.00;27.20;;;;;;2245399;61;20850;-63
2022/09/01 04:47:43;0.00;0.00;0.62;0.00;0.00;0.62;1.97;1.10;;;26.00;27.20;;;;;;2245399;61;20369;-60
2022/09/01 04:50:33;0.00;0.00;0.62;0.00;0.00;0.62;2.53;1.23;;;25.90;27.10;;;;;;2245903;61;20834;-62
2022/09/01 04:53:33;0.00;0.00;0.62;0.00;0.00;0.62;2.00;1.07;;;26.00;27.20;;;;;;2245162;61;20425;-63
2022/09/01 04:56:21;0.00;0.00;0.62;0.00;0.00;0.62;2.23;1.20;;;25.90;27.20;;;;;;2245347;61;20357;-64
2022/09/01 04:59:21;0.00;0.00;0.62;0.00;0.00;0.62;2.17;1.10;;;25.90;27.20;;;;;;2245412;61;20374;-63
2022/09/01 05:02:11;0.00;0.00;0.62;0.00;0.00;0.62;2.00;0.97;;;25.90;27.20;;;;;;2245467;61;20393;-62
2022/09/01 05:04:57;0.00;0.00;0.62;0.00;0.00;0.62;1.77;1.00;;;25.90;27.30;;;;;;2245521;61;20412;-62
2022/09/01 05:07:42;0.00;0.00;0.62;0.00;0.00;0.62;1.77;1.30;;;25.90;27.30;;;;;;2245159;61;20429;-63
2022/09/01 05:10:28;0.00;0.00;0.62;0.00;0.00;0.62;2.00;1.13;;;25.90;27.30;;;;;;2245811;61;20746;-63
2022/09/01 05:13:34;0.00;0.00;0.62;0.00;0.00;0.62;2.00;1.07;;;25.90;27.30;;;;;;2245145;61;20433;-64
2022/09/01 05:16:20;0.00;0.00;0.62;0.00;0.00;0.62;1.50;0.80;;;25.90;27.30;;;;;;2245482;61;20366;-61
2022/09/01 05:19:05;0.00;0.00;0.62;0.00;0.00;0.62;2.67;1.10;;;25.90;27.30;;;;;;2245294;61;20413;-63
2022/09/01 05:21:57;0.00;0.00;0.62;0.00;0.00;0.62;2.03;1.07;;;25.90;27.40;;;;;;2245419;61;20578;-61
2022/09/01 05:24:42;0.00;0.00;0.62;0.00;0.00;0.62;3.40;1.40;;;25.80;27.30;;;;;;2245428;61;20417;-61
2022/09/01 05:27:29;0.00;0.00;0.62;0.00;0.00;0.62;1.83;1.30;;;25.80;27.40;;;;;;2245451;61;20385;-62
2022/09/01 05:30:16;0.00;0.00;0.62;0.00;0.00;0.62;2.13;1.50;;;25.90;27.40;;;;;;2245777;61;20370;-66
2022/09/01 05:33:01;0.00;0.00;0.62;0.00;0.00;0.62;2.40;1.40;;;25.90;27.40;;;;;;2245140;61;20421;-63
2022/09/01 05:35:54;0.00;0.00;0.62;0.00;0.00;0.62;2.40;1.50;;;25.90;27.50;;;;;;2245092;61;20572;-62
2022/09/01 05:38:41;0.00;0.00;0.62;0.00;0.00;0.62;2.07;1.13;;;25.90;27.50;;;;;;2245525;61;20365;-66
2022/09/01 05:41:28;0.00;0.00;0.62;0.00;0.00;0.62;2.20;1.30;;;25.90;27.50;;;;;;2245327;61;20576;-65
2022/09/01 05:44:17;0.00;0.00;0.62;0.00;0.00;0.62;1.63;1.03;;;25.90;27.50;;;;;;2245745;61;20382;-67
2022/09/01 05:47:04;0.00;0.00;0.62;0.00;0.00;0.62;3.30;1.20;;;25.80;27.50;;;;;;2245521;61;20414;-65
2022/09/01 05:49:49;0.00;0.00;0.62;0.00;0.00;0.62;1.97;1.23;;;25.90;27.50;;;;;;2245700;61;20592;-65
2022/09/01 05:52:36;0.00;0.00;0.62;0.00;0.00;0.62;3.20;1.40;;;25.90;27.60;;;;;;2244964;61;20358;-65
2022/09/01 05:55:25;0.00;0.00;0.62;0.00;0.00;0.62;2.17;1.37;;;25.80;27.50;;;;;;2245324;61;20661;-66
2022/09/01 05:58:12;0.00;0.00;0.62;0.00;0.00;0.62;2.23;1.00;;;25.90;27.60;;;;;;2245798;61;20365;-65
2022/09/01 06:00:58;0.00;0.00;0.62;0.00;0.00;0.62;1.70;1.10;;;25.90;27.60;;;;;;2245399;61;20421;-63
2022/09/01 06:03:43;0.00;0.00;0.62;0.00;0.00;0.62;1.90;1.20;;;25.80;27.60;;;;;;2244954;61;20413;-63
2022/09/01 06:06:37;0.00;0.00;0.62;0.00;0.00;0.62;2.13;1.10;;;25.80;27.60;;;;;;2245344;61;20402;-63
2022/09/01 06:09:23;0.00;0.00;0.62;0.00;0.00;0.62;2.90;1.20;;;25.90;27.70;;;;;;2245413;61;20373;-67
2022/09/01 06:12:21;0.00;0.00;0.62;0.00;0.00;0.62;1.90;1.30;;;25.90;27.70;;;;;;2245316;61;20370;-67
2022/09/01 06:15:14;0.00;0.00;0.62;0.00;0.00;0.62;2.57;1.60;;;25.90;27.80;;;;;;2245313;61;20397;-68
2022/09/01 06:18:00;0.00;0.00;0.62;0.00;0.00;0.62;1.80;1.20;;;25.90;27.80;;;;;;2245047;61;20666;-68
2022/09/01 06:20:48;0.00;0.00;0.62;0.00;0.00;0.62;2.13;1.27;;;25.90;27.80;;;;;;2240890;62;20398;-65
2022/09/01 06:23:35;0.00;0.00;0.62;0.00;0.00;0.62;3.87;1.60;;;25.80;27.80;;;;;;2240839;62;20447;-67
2022/09/01 06:26:24;0.00;0.00;0.62;0.00;0.00;0.62;2.63;1.30;;;25.80;27.80;;;;;;2241179;62;20374;-65
2022/09/01 06:29:14;0.00;0.00;0.62;0.00;0.00;0.62;3.33;2.30;;;25.80;27.80;;;;;;2241214;62;20433;-66
2022/09/01 06:32:09;0.00;0.00;0.62;0.00;0.00;0.62;3.27;1.97;;;25.80;27.80;;;;;;2241108;62;20370;-65
2022/09/01 06:34:56;0.00;0.00;0.62;0.00;0.00;0.62;3.13;2.20;;;25.80;27.90;;;;;;2241436;62;20817;-66
2022/09/01 06:37:42;0.00;0.00;0.62;0.00;0.00;0.62;2.30;1.77;;;25.80;27.90;;;;;;2241121;62;20395;-68
2022/09/01 06:40:31;0.00;0.00;0.62;0.00;0.00;0.62;2.93;2.30;;;25.80;27.90;;;;;;2240851;62;20366;-65
2022/09/01 06:43:16;0.00;0.00;0.62;0.00;0.00;0.62;3.37;2.40;;;25.80;28.00;;;;;;2241438;62;20418;-63
2022/09/01 06:46:08;0.00;0.00;0.62;0.00;0.00;0.62;2.63;2.20;;;25.80;28.00;;;;;;2241440;62;20403;-66
2022/09/01 06:48:57;0.00;0.00;0.62;0.00;0.00;0.62;2.87;2.13;;;25.80;28.10;;;;;;2241386;62;20750;-66
2022/09/01 06:51:48;0.00;0.00;0.62;0.00;0.00;0.62;3.37;2.03;;;25.70;28.00;;;;;;2241530;62;20362;-67
2022/09/01 06:54:34;0.00;0.00;0.62;0.00;0.00;0.62;2.90;1.87;;;25.80;28.10;;;;;;2240893;62;20659;-65
2022/09/01 06:57:21;0.00;0.00;0.62;0.00;0.00;0.62;2.30;1.60;;;25.80;28.20;;;;;;2241401;62;20358;-65
2022/09/01 07:00:16;0.00;0.00;0.62;0.00;0.00;0.62;2.13;1.57;;;25.70;28.10;;;;;;2240913;62;20374;-62
2022/09/01 07:03:06;0.00;0.00;0.62;0.00;0.00;0.62;3.30;1.70;;;25.70;28.20;;;;;;2240727;62;20362;-63
2022/09/01 07:06:23;0.00;0.00;0.62;0.00;0.00;0.62;1.60;1.17;;;25.70;28.20;;;;;;2241186;62;20413;-67
2022/09/01 07:09:29;0.00;0.00;0.62;0.00;0.00;0.62;1.93;1.10;;;25.70;28.20;;;;;;2241381;62;20390;-69
2022/09/01 07:12:32;0.00;0.00;0.62;0.00;0.00;0.62;2.30;1.33;;;25.70;28.20;;;;;;2241688;62;20358;-66
2022/09/01 07:15:19;0.00;0.00;0.62;0.00;0.00;0.62;1.60;1.00;;;25.70;28.20;;;;;;2240952;62;20393;-65
2022/09/01 07:18:05;0.00;0.00;0.62;0.00;0.00;0.62;2.00;1.27;;;25.70;28.20;;;;;;2240988;62;20738;-63
2022/09/01 07:20:52;0.00;0.00;0.62;0.00;0.00;0.62;1.70;1.20;;;25.70;28.30;;;;;;2241023;62;20378;-64
2022/09/01 07:23:38;0.00;0.00;0.62;0.00;0.00;0.62;1.70;1.07;;;25.70;28.20;;;;;;2240696;62;20559;-63
2022/09/01 07:26:23;0.00;0.00;0.62;0.00;0.00;0.62;2.10;1.13;;;25.70;28.20;;;;;;2241081;62;20718;-62
2022/09/01 07:29:08;0.00;0.00;0.62;0.00;0.00;0.62;2.00;1.23;;;25.80;28.30;;;;;;2240965;62;20439;-67
2022/09/01 07:31:54;0.00;0.00;0.62;0.00;0.00;0.62;1.60;0.97;;;25.70;28.20;;;;;;2240832;62;20362;-66
2022/09/01 07:34:40;0.00;0.00;0.62;0.00;0.00;0.62;2.10;1.10;;;25.80;28.30;;;;;;2241094;62;20394;-68
2022/09/01 07:37:27;0.00;0.00;0.62;0.00;0.00;0.62;1.70;1.10;;;25.80;28.30;;;;;;2240954;62;20434;-61
2022/09/01 07:40:17;0.00;0.00;0.62;0.00;0.00;0.62;1.70;1.20;;;25.80;28.30;;;;;;2240757;62;20460;-62
2022/09/01 07:43:08;0.00;0.00;0.62;0.00;0.00;0.62;2.00;1.20;;;25.80;28.30;;;;;;2241303;62;20721;-66
2022/09/01 07:46:12;0.00;0.00;0.62;0.00;0.00;0.62;2.00;1.30;;;25.80;28.30;;;;;;2241091;62;20621;-65
2022/09/01 07:48:58;0.00;0.00;0.62;0.00;0.00;0.62;2.73;0.90;;;25.80;28.30;;;;;;2241475;62;20379;-62
2022/09/01 07:51:50;0.00;0.00;0.62;0.00;0.00;0.62;1.60;1.03;;;25.80;28.30;;;;;;2240922;62;20443;-65
2022/09/01 07:54:36;0.00;0.00;0.62;0.00;0.00;0.62;2.43;1.23;;;25.80;28.80;;;;;;2240527;62;20390;-64
2022/09/01 07:57:21;0.00;0.00;0.62;0.00;0.00;0.62;3.60;1.50;;;25.90;28.40;;;;;;2241049;62;20358;-66
2022/09/01 08:00:10;0.00;0.00;0.62;0.00;0.00;0.62;2.27;1.27;;;25.90;28.40;;;;;;2240914;62;20398;-62
2022/09/01 08:02:58;0.00;0.00;0.62;0.00;0.00;0.62;2.30;1.43;;;25.90;28.30;;;;;;2241366;62;20771;-63
2022/09/01 08:05:44;0.00;0.00;0.62;0.00;0.00;0.62;1.60;0.93;;;26.00;28.40;;;;;;2240646;62;20417;-64
2022/09/01 08:08:31;0.00;0.00;0.62;0.00;0.00;0.62;2.67;1.00;;;26.00;28.40;;;;;;2240573;62;20434;-65
2022/09/01 08:11:19;0.00;0.00;0.62;0.00;0.00;0.62;2.37;1.40;;;26.00;28.30;;;;;;2241147;62;20366;-65
2022/09/01 08:14:04;0.00;0.00;0.62;0.00;0.00;0.62;1.73;1.10;;;26.00;28.40;;;;;;2240550;62;20414;-63
2022/09/01 08:16:50;0.00;0.00;0.62;0.00;0.00;0.62;1.50;0.83;;;26.00;28.30;;;;;;2240928;62;20399;-62
2022/09/01 08:19:35;0.00;0.00;0.62;0.00;0.00;0.62;1.70;1.07;;;26.10;28.40;;;;;;2241912;62;20397;-64
2022/09/01 08:22:28;0.00;0.00;0.62;0.00;0.00;0.62;2.80;1.23;;;26.00;28.30;;;;;;2241503;62;20351;-64
2022/09/01 08:25:19;0.00;0.00;0.62;0.00;0.00;0.62;3.20;1.10;;;26.10;28.30;;;;;;2239163;62;20438;-62
2022/09/01 08:28:05;0.00;0.00;0.62;0.00;0.00;0.62;2.70;0.80;;;26.10;28.20;;;;;;2241306;62;20402;-62
2022/09/01 08:30:50;0.00;0.00;0.62;0.00;0.00;0.62;2.77;1.00;;;26.10;28.20;;;;;;2241224;62;20592;-62
2022/09/01 08:33:37;0.00;0.00;0.62;0.00;0.00;0.62;3.20;1.00;;;26.10;28.00;;;;;;2241609;62;20383;-63
2022/09/01 08:36:22;0.00;0.00;0.62;0.00;0.00;0.62;1.60;1.10;;;26.10;27.90;;;;;;2241347;62;20426;-63
2022/09/01 08:39:07;0.00;0.00;0.62;0.00;0.00;0.62;1.63;1.10;;;26.10;27.80;;;;;;2241264;62;20584;-63
2022/09/01 08:42:03;0.00;0.00;0.62;0.00;0.00;0.62;1.60;0.90;;;26.20;27.90;;;;;;2241754;62;20367;-62
2022/09/01 08:44:59;0.00;0.00;0.62;0.00;0.00;0.62;2.10;1.10;;;26.20;27.80;;;;;;2241531;62;20398;-63
2022/09/01 08:47:45;0.00;0.00;0.62;0.00;0.00;0.62;2.47;1.10;;;26.10;27.60;;;;;;2241815;62;20405;-63
2022/09/01 08:50:33;0.00;0.00;0.62;0.00;0.00;0.62;1.90;0.90;;;26.20;27.60;;;;;;2241370;62;20362;-62
2022/09/01 08:53:44;0.00;0.00;0.62;0.00;0.00;0.62;4.50;1.17;;;26.20;27.70;;;;;;2238959;62;20363;-62
2022/09/01 08:56:30;0.00;0.00;0.62;0.00;0.00;0.62;1.60;1.20;;;26.20;27.70;;;;;;2241650;62;20363;-61
2022/09/01 08:59:19;0.00;0.00;0.62;0.00;0.00;0.62;1.60;0.80;;;26.20;27.60;;;;;;2241367;62;20415;-62
2022/09/01 09:02:38;0.00;0.00;0.62;0.00;0.00;0.62;2.50;1.20;;;26.20;27.40;;;;;;2241972;62;20365;-62
2022/09/01 09:05:37;0.00;0.00;0.62;0.00;0.00;0.62;1.77;1.00;;;26.20;26.90;;;;;;2241702;62;20383;-62
2022/09/01 09:08:56;0.00;0.00;0.62;0.00;0.00;0.62;3.60;1.30;;;26.20;26.60;;;;;;2241561;62;20359;-62
2022/09/01 09:12:16;0.00;0.00;0.62;0.00;0.00;0.62;2.33;0.80;;;26.20;26.40;;;;;;2241960;62;20653;-62
2022/09/01 09:15:15;0.00;0.00;0.62;0.00;0.00;0.62;2.77;1.00;;;26.10;26.40;;;;;;2241497;62;20394;-62
2022/09/01 09:18:11;0.00;0.00;0.62;0.00;0.00;0.62;3.00;1.20;;;26.10;26.50;;;;;;2241988;62;20456;-62
2022/09/01 09:21:06;0.00;0.00;0.62;0.00;0.00;0.62;4.30;1.23;;;26.10;26.60;;;;;;2241712;62;20362;-63
2022/09/01 09:24:02;0.00;0.00;0.62;0.00;0.00;0.62;1.83;0.90;;;26.10;26.70;;;;;;2241432;62;20431;-64
2022/09/01 09:26:49;0.00;0.00;0.62;0.00;0.00;0.62;3.80;1.07;;;26.10;26.80;;;;;;2241569;62;20359;-65
2022/09/01 09:29:34;0.00;0.00;0.62;0.00;0.00;0.62;1.67;0.90;;;26.10;26.80;;;;;;2241609;62;20679;-64
2022/09/01 09:32:40;0.00;0.00;0.62;0.00;0.00;0.62;3.33;1.03;;;26.10;26.70;;;;;;2241930;62;20394;-66
2022/09/01 09:35:32;0.00;0.00;0.62;0.00;0.00;0.62;1.80;1.20;;;26.00;26.40;;;;;;2241594;62;20402;-62
2022/09/01 09:38:27;0.00;0.00;0.62;0.00;0.00;0.62;2.80;1.20;;;26.00;26.30;;;;;;2241524;62;20745;-61
2022/09/01 09:41:18;0.00;0.00;0.62;0.00;0.00;0.62;1.60;0.90;;;26.00;26.20;;;;;;2241919;62;20424;-63
2022/09/01 09:44:17;0.00;0.00;0.62;0.00;0.00;0.62;2.30;1.10;;;26.00;26.20;;;;;;2241540;62;20383;-62
2022/09/01 09:47:02;0.00;0.00;0.62;0.00;0.00;0.62;1.80;1.00;;;26.00;26.20;;;;;;2241840;62;20371;-62
2022/09/01 09:49:53;0.00;0.00;0.62;0.00;0.00;0.62;1.93;0.90;;;26.00;26.20;;;;;;2241568;62;20379;-64
2022/09/01 09:52:38;0.00;0.00;0.62;0.00;0.00;0.62;1.97;0.90;;;26.00;26.30;;;;;;2241479;62;20693;-63
2022/09/01 09:55:27;0.00;0.00;0.62;0.00;0.00;0.62;2.10;1.00;;;26.00;26.20;;;;;;2241774;62;20390;-63
2022/09/01 09:58:12;0.00;0.00;0.62;0.00;0.00;0.62;1.70;0.90;;;26.00;26.20;;;;;;2241434;62;20367;-62
2022/09/01 10:01:01;0.00;0.00;0.62;0.00;0.00;0.62;1.60;0.90;;;26.00;26.20;;;;;;2241521;62;20366;-63
2022/09/01 10:03:50;0.00;0.00;0.62;0.00;0.00;0.62;2.37;0.87;;;26.00;26.20;;;;;;2241474;62;20473;-63
2022/09/01 10:06:43;0.00;0.00;0.62;0.00;0.00;0.62;1.50;1.10;;;26.00;26.20;;;;;;2241432;62;20391;-63
2022/09/01 10:09:37;0.00;0.00;0.62;0.00;0.00;0.62;2.17;1.13;;;26.00;26.10;;;;;;2241823;62;20415;-63
2022/09/01 10:12:24;0.00;0.00;0.62;0.00;0.00;0.62;2.00;1.00;;;26.00;26.00;;;;;;2241452;62;20402;-63
2022/09/01 10:15:10;0.00;0.00;0.62;0.00;0.00;0.62;1.47;0.90;;;26.00;25.90;;;;;;2240933;62;20451;-63
2022/09/01 10:18:00;0.00;0.00;0.62;0.00;0.00;0.62;2.10;1.00;;;26.00;25.80;;;;;;2241793;62;20711;-63
2022/09/01 10:20:54;0.00;0.00;0.62;0.00;0.00;0.62;1.40;0.73;;;26.10;25.60;;;;;;2241605;62;20362;-63
2022/09/01 10:23:40;0.00;0.00;0.62;0.00;0.00;0.62;1.40;0.80;;;26.10;25.50;;;;;;2241620;62;20783;-62
2022/09/01 10:26:32;0.00;0.00;0.62;0.00;0.00;0.62;1.30;0.80;;;26.00;25.40;;;;;;2241570;62;20371;-63
2022/09/01 10:29:24;0.00;0.00;0.62;0.00;0.00;0.62;1.60;1.00;;;26.00;25.30;;;;;;2241357;62;20358;-63
2022/09/01 10:32:16;0.00;0.00;0.62;0.00;0.00;0.62;2.50;0.90;;;26.00;25.30;;;;;;2241799;62;20403;-62
2022/09/01 10:35:03;0.00;0.00;0.62;0.00;0.00;0.62;3.30;0.87;;;26.00;25.20;;;;;;2241387;62;20415;-63
2022/09/01 10:37:49;0.00;0.00;0.62;0.00;0.00;0.62;1.40;0.90;;;26.00;25.20;;;;;;2241268;62;20713;-62
2022/09/01 10:40:39;0.00;0.00;0.62;0.00;0.00;0.62;1.30;0.80;;;26.00;25.00;;;;;;2241753;62;20483;-62
2022/09/01 10:43:41;0.00;0.00;0.62;0.00;0.00;0.62;1.83;0.90;;;26.00;25.00;;;;;;2241237;62;20378;-62
2022/09/01 10:46:45;0.00;0.00;0.62;0.00;0.00;0.62;2.53;0.90;;;26.00;25.00;;;;;;2241672;62;20358;-63
2022/09/01 10:49:59;0.00;0.00;0.62;0.00;0.00;0.62;4.57;1.00;;;26.00;25.00;;;;;;2241644;62;20409;-62
2022/09/01 10:53:02;0.00;0.00;0.62;0.00;0.00;0.62;1.40;0.93;;;26.00;24.80;;;;;;2241270;62;20362;-63
2022/09/01 10:56:00;0.00;0.00;0.62;0.00;0.00;0.62;1.70;1.03;;;26.00;24.70;;;;;;2241365;62;20696;-63
2022/09/01 10:59:06;0.00;0.00;0.62;0.00;0.00;0.62;1.80;1.00;;;26.00;24.50;;;;;;2241205;62;20364;-64
2022/09/01 11:02:09;0.00;0.00;0.62;0.00;0.00;0.62;1.70;1.00;;;26.00;24.60;;;;;;2241255;62;20395;-63
2022/09/01 11:05:16;0.00;0.00;0.62;0.00;0.00;0.62;1.67;1.00;;;25.90;24.70;;;;;;2241345;62;20418;-63
2022/09/01 11:08:38;0.00;0.00;0.62;0.00;0.00;0.62;1.20;0.80;;;26.00;24.80;;;;;;2241579;62;20358;-63
2022/09/01 11:11:34;0.00;0.00;0.62;0.00;0.00;0.62;2.20;1.10;;;26.00;24.90;;;;;;2241423;62;20358;-63
2022/09/01 11:14:22;0.00;0.00;0.62;0.00;0.00;0.62;1.60;0.80;;;26.00;25.00;;;;;;2241051;62;20465;-63
2022/09/01 11:17:18;0.00;0.00;0.62;0.00;0.00;0.62;2.30;0.80;;;26.00;25.00;;;;;;2241742;62;20381;-63